Delta Virtual Airport Information Service

Port Louis Sir Seewoosagur Ramgoolam Airport

ICAO: FIMP Country: Mauritius
Latitude: -20.4302 Longitude: 57.6836
Latest Arrival : DAC6996 (FACT-FIMP) Latest Departure : DAC6996 (FIMP-HESH)


WX CaptureLIVE
Data provided by noaa.gov | Fetched at 15:36:25

METAR : FIMP 092000Z 14008KT 9999 BKN017 SCT050 20/11 Q1021

TAF : FIMP 091730Z 0918/1100 15010G22KT 9999 BKN016 BECMG 1004/1006 09010KT SCT018


Runway Data for FIMP
Data provided by openaviationdata.com

Runway ID Mag Var Hdg Length Elevation Surface ILS Freq ILS Id ILS Slope
14 -19 136° 9975 ft 55 ft Bituminous 109.9 IPL 3
32 -19 316° 9975 ft 55 ft Bituminous -- -- --

Port Louis Sir Seewoosagur Ramgoolam Airport, Mauritius
Use only for reference purposes



Not for navigational purposes.